Time;durP1;ratioP1;P1;durP2;ratioP2;P2;SDS_P1;SDS_P2;PMS_P1;PMS_P2;Temp;Humidity;BMP_temperature;BMP_pressure;BME280_temperature;BME280_humidity;BME280_pressure;Samples;Min_cycle;Max_cycle;Signal;HPM_P1;HPM_P2
2023/04/18 00:00:34;;;;;;;;;;;11.10;92.30;;;11.35;57.84;99143.16;4973302;28;124140;-77
2023/04/18 00:03:08;;;;;;;;;;;11.10;92.30;;;11.35;58.05;99134.84;4963231;28;113501;-76
2023/04/18 00:05:39;;;;;;;;;;;11.10;92.30;;;11.37;57.59;99136.19;4961156;28;113006;-76
2023/04/18 00:08:07;;;;;;;;;;;11.10;92.30;;;11.39;57.44;99122.88;4967546;28;124012;-78
2023/04/18 00:10:39;;;;;;;;;;;11.10;92.30;;;11.40;57.62;99124.50;4973773;28;124205;-77
2023/04/18 00:13:06;;;;;;;;;;;11.10;92.30;;;11.42;57.83;99127.78;4966754;28;113771;-76
2023/04/18 00:15:34;;;;;;;;;;;11.20;92.40;;;11.45;57.91;99121.63;4980711;28;113884;-77
2023/04/18 00:18:04;;;;;;;;;;;11.20;92.40;;;11.45;57.47;99121.63;4975931;28;124466;-78
2023/04/18 00:20:31;;;;;;;;;;;11.20;92.30;;;11.46;57.51;99122.44;4970396;28;124542;-77
2023/04/18 00:23:05;;;;;;;;;;;11.20;92.30;;;11.45;57.41;99110.56;4976311;28;115123;-76
2023/04/18 00:25:31;;;;;;;;;;;11.20;92.30;;;11.45;57.95;99113.31;4974886;28;113821;-81
2023/04/18 00:28:06;;;;;;;;;;;11.20;92.40;;;11.45;57.45;99109.75;4981910;28;124267;-76
2023/04/18 00:30:32;;;;;;;;;;;11.20;92.30;;;11.43;57.83;99107.28;4979365;28;123952;-80
2023/04/18 00:33:03;;;;;;;;;;;11.20;92.30;;;11.43;58.00;99098.97;4976403;28;114506;-77
2023/04/18 00:35:30;;;;;;;;;;;11.20;92.30;;;11.43;58.25;99106.44;4983418;28;113837;-80
2023/04/18 00:38:03;;;;;;;;;;;11.20;92.40;;;11.46;57.67;99108.59;4980796;28;124355;-79
2023/04/18 00:40:29;;;;;;;;;;;11.20;92.40;;;11.47;57.78;99108.28;4969935;28;124099;-77
2023/04/18 00:42:56;;;;;;;;;;;10.30;92.00;;;11.48;57.77;99095.28;4985606;28;113304;-76
2023/04/18 00:45:25;;;;;;;;;;;11.20;92.40;;;11.51;58.01;99105.72;4978786;28;114801;-78
2023/04/18 00:47:54;;;;;;;;;;;11.20;92.40;;;11.49;57.97;99100.47;4966655;28;124214;-82
2023/04/18 00:50:25;;;;;;;;;;;11.20;92.50;;;11.50;57.73;99102.13;4993421;28;123928;-78
2023/04/18 00:53:01;;;;;;;;;;;11.20;92.50;;;11.52;57.50;99098.22;4974318;28;114287;-78
2023/04/18 00:55:28;;;;;;;;;;;11.20;92.50;;;11.49;57.89;99106.00;4968315;28;113263;-76
2023/04/18 00:57:56;;;;;;;;;;;11.30;92.50;;;11.50;58.28;99106.84;4968419;28;124749;-77
2023/04/18 01:00:26;;;;;;;;;;;11.20;92.40;;;11.50;57.97;99096.59;4985009;28;123541;-80
2023/04/18 01:02:55;;;;;;;;;;;11.30;92.50;;;11.50;57.52;99096.59;4971556;28;114854;-78
2023/04/18 01:05:21;;;;;;;;;;;11.20;92.40;;;11.51;57.77;99094.66;4982528;28;113941;-79
2023/04/18 01:07:50;;;;;;;;;;;11.20;92.40;;;11.50;57.71;99098.56;4970138;28;124173;-78
2023/04/18 01:10:19;;;;;;;;;;;11.20;92.50;;;11.49;57.83;99086.66;4971267;28;124008;-78
2023/04/18 01:12:45;;;;;;;;;;;11.20;92.40;;;11.47;58.09;99094.47;4975947;28;114473;-78
2023/04/18 01:15:14;;;;;;;;;;;11.20;92.50;;;11.41;57.82;99078.28;4971505;28;113461;-75
2023/04/18 01:17:43;;;;;;;;;;;11.20;92.50;;;11.38;58.21;99076.94;4970835;28;123553;-77
2023/04/18 01:20:09;;;;;;;;;;;11.20;92.50;;;11.39;58.32;99075.00;4982064;28;124169;-76
2023/04/18 01:22:38;;;;;;;;;;;11.20;92.50;;;11.38;58.13;99076.94;4980980;28;113731;-77
2023/04/18 01:25:06;;;;;;;;;;;11.20;92.50;;;11.36;58.00;99073.66;4974721;28;113064;-77
2023/04/18 01:27:32;;;;;;;;;;;11.20;92.50;;;11.35;58.39;99065.69;4988260;28;123758;-78
2023/04/18 01:30:07;;;;;;;;;;;11.20;92.50;;;11.37;57.75;99069.78;4984590;28;123480;-76
2023/04/18 01:32:41;;;;;;;;;;;11.20;92.50;;;11.37;57.79;99058.72;4963206;28;114434;-77
2023/04/18 01:35:07;;;;;;;;;;;11.20;92.50;;;11.35;58.03;99060.16;4959430;28;113969;-76
2023/04/18 01:37:33;;;;;;;;;;;11.20;92.50;;;11.33;58.12;99054.94;4983467;28;123486;-78
2023/04/18 01:40:02;;;;;;;;;;;11.20;92.50;;;11.34;58.18;99056.59;4976965;28;125023;-81
2023/04/18 01:42:28;;;;;;;;;;;11.10;92.50;;;11.34;58.23;99059.34;4972983;28;114252;-77
2023/04/18 01:44:55;;;;;;;;;;;11.10;92.50;;;11.38;58.12;99057.59;4980684;28;113677;-79
2023/04/18 01:47:21;;;;;;;;;;;11.20;92.60;;;11.37;58.04;99053.19;4977116;28;124636;-78
2023/04/18 01:49:49;;;;;;;;;;;11.10;92.60;;;11.34;58.02;99053.81;4967499;28;124942;-78
2023/04/18 01:52:18;;;;;;;;;;;11.10;92.50;;;11.35;58.11;99054.63;4980970;28;114298;-78
2023/04/18 01:54:48;;;;;;;;;;;11.10;92.50;;;11.32;58.14;99047.78;4981851;28;112697;-79
2023/04/18 01:57:15;;;;;;;;;;;11.10;92.50;;;11.26;57.91;99055.38;4991049;28;124242;-78
2023/04/18 01:59:41;;;;;;;;;;;11.00;92.50;;;11.24;58.36;99051.28;4972004;28;123963;-78
2023/04/18 02:02:13;;;;;;;;;;;11.00;92.60;;;11.21;58.44;99044.41;4981985;28;114504;-79
2023/04/18 02:04:39;;;;;;;;;;;11.00;92.60;;;11.21;58.25;99049.13;4981279;28;113807;-75
2023/04/18 02:07:05;;;;;;;;;;;11.00;92.60;;;11.22;58.24;99042.47;4976264;28;124804;-75
2023/04/18 02:09:34;;;;;;;;;;;11.00;92.70;;;11.25;58.49;99048.19;4974087;28;124045;-77
2023/04/18 02:12:01;;;;;;;;;;;11.00;92.60;;;11.24;58.48;99054.84;4969621;28;114522;-78
2023/04/18 02:14:36;;;;;;;;;;;11.00;92.70;;;11.25;58.32;99050.13;4988148;28;114017;-77
2023/04/18 02:17:05;;;;;;;;;;;11.00;92.60;;;11.21;58.23;99049.94;4985353;28;123883;-79
2023/04/18 02:19:37;;;;;;;;;;;10.90;92.60;;;11.18;58.62;99058.88;4989116;28;122772;-77
2023/04/18 02:22:04;;;;;;;;;;;10.90;92.60;;;11.17;58.54;99048.09;4976650;28;115516;-80
2023/04/18 02:24:37;;;;;;;;;;;10.90;92.70;;;11.15;58.58;99045.66;4983209;28;113718;-78
2023/04/18 02:27:04;;;;;;;;;;;10.90;92.70;;;11.09;58.21;99049.66;4984704;28;123212;-78
2023/04/18 02:29:37;;;;;;;;;;;10.90;92.70;;;11.11;58.63;99047.41;4975781;28;123923;-76
2023/04/18 02:32:03;;;;;;;;;;;10.80;92.70;;;11.10;58.37;99047.72;4971917;28;113810;-77
2023/04/18 02:34:32;;;;;;;;;;;10.80;92.70;;;11.10;58.57;99053.25;4971482;28;113491;-76
2023/04/18 02:36:58;;;;;;;;;;;10.90;92.70;;;11.12;58.20;99051.78;4985497;28;125476;-78
2023/04/18 02:39:25;;;;;;;;;;;10.90;92.80;;;11.13;58.29;99052.63;4975398;28;124207;-78
2023/04/18 02:41:51;;;;;;;;;;;10.90;92.70;;;11.09;58.35;99046.88;4974567;28;114566;-79
2023/04/18 02:44:22;;;;;;;;;;;10.80;92.70;;;11.08;58.37;99049.97;4978302;28;113762;-76
2023/04/18 02:46:51;;;;;;;;;;;10.80;92.70;;;11.04;58.29;99045.06;4972446;28;123987;-78
2023/04/18 02:49:25;;;;;;;;;;;10.80;92.70;;;11.01;58.66;99039.31;4981682;28;123217;-77
2023/04/18 02:51:54;;;;;;;;;;;10.80;92.60;;;10.98;58.48;99048.22;4983373;28;115485;-77
2023/04/18 02:54:25;;;;;;;;;;;10.80;92.60;;;10.99;58.37;99042.41;4971876;28;112871;-79
2023/04/18 02:56:58;;;;;;;;;;;10.70;92.60;;;11.00;58.74;99043.22;4969257;28;125010;-75
2023/04/18 02:59:27;;;;;;;;;;;10.80;92.70;;;10.97;58.33;99041.91;4972694;28;124015;-76
2023/04/18 03:01:58;;;;;;;;;;;10.70;92.70;;;10.92;58.93;99041.19;4978630;28;114522;-77
2023/04/18 03:04:25;;;;;;;;;;;10.70;92.70;;;10.90;58.55;99038.72;4978879;28;112889;-76
2023/04/18 03:06:59;;;;;;;;;;;10.60;92.70;;;10.90;58.51;99041.47;4986647;28;124207;-75
2023/04/18 03:09:27;;;;;;;;;;;10.70;92.80;;;10.88;58.95;99041.00;4958181;28;123108;-76
2023/04/18 03:12:01;;;;;;;;;;;10.70;92.80;;;10.84;58.61;99045.50;4985921;28;117658;-76
2023/04/18 03:14:27;;;;;;;;;;;10.60;92.80;;;10.78;58.55;99047.53;4978235;28;114681;-77
2023/04/18 03:16:56;;;;;;;;;;;10.60;92.80;;;10.79;59.07;99049.16;4985880;28;123518;-76
2023/04/18 03:19:25;;;;;;;;;;;10.60;92.80;;;10.80;58.91;99047.22;4974548;28;123322;-77
2023/04/18 03:21:52;;;;;;;;;;;10.60;92.90;;;10.80;58.67;99048.06;4975377;28;114544;-76
2023/04/18 03:24:18;;;;;;;;;;;10.50;92.80;;;10.78;58.64;99050.31;4969748;28;113170;-78
2023/04/18 03:26:47;;;;;;;;;;;10.50;92.90;;;10.78;58.82;99052.25;4984439;28;124147;-78
2023/04/18 03:29:14;;;;;;;;;;;10.50;92.90;;;10.80;58.75;99044.44;4979290;28;124381;-76
2023/04/18 03:31:47;;;;;;;;;;;10.50;92.90;;;10.81;58.83;99046.09;4981300;28;114341;-77
2023/04/18 03:34:13;;;;;;;;;;;10.50;92.90;;;10.74;59.05;99042.94;4982190;28;112838;-78
2023/04/18 03:36:40;;;;;;;;;;;10.50;92.90;;;10.69;58.93;99054.09;4981406;28;123523;-77
2023/04/18 03:39:13;;;;;;;;;;;10.40;92.90;;;10.61;59.02;99045.41;4979856;28;124039;-76
2023/04/18 03:41:42;;;;;;;;;;;10.40;93.00;;;10.61;59.33;99050.94;4987686;28;113997;-76
2023/04/18 03:44:14;;;;;;;;;;;10.40;93.20;;;10.55;59.54;99045.78;4973303;28;113741;-76
2023/04/18 03:46:41;;;;;;;;;;;10.40;93.00;;;10.52;59.43;99052.75;4966674;28;123188;-77
2023/04/18 03:49:14;;;;;;;;;;;10.30;93.00;;;10.51;59.54;99044.78;4983731;28;124062;-77
2023/04/18 03:51:42;;;;;;;;;;;10.30;93.10;;;10.48;59.68;99048.97;4974213;28;114336;-76
2023/04/18 03:54:14;;;;;;;;;;;10.30;93.10;;;10.48;59.50;99048.16;4984763;28;113995;-77
2023/04/18 03:56:41;;;;;;;;;;;10.30;93.10;;;10.45;58.98;99052.34;4982297;28;124233;-76
2023/04/18 03:59:12;;;;;;;;;;;10.30;93.10;;;10.42;59.71;99050.19;4971744;28;123596;-77
2023/04/18 04:01:38;;;;;;;;;;;10.20;93.20;;;10.39;59.92;99050.78;4973310;28;115586;-78
2023/04/18 04:04:04;;;;;;;;;;;10.20;93.50;;;10.40;59.40;99052.44;4984074;28;115020;-78
2023/04/18 04:06:31;;;;;;;;;;;10.20;93.20;;;10.43;59.65;99060.13;4981592;28;123998;-77
2023/04/18 04:09:00;;;;;;;;;;;10.20;93.20;;;10.45;59.48;99060.63;4980057;28;123999;-78
2023/04/18 04:11:26;;;;;;;;;;;10.20;93.30;;;10.44;59.81;99069.22;4971969;28;114587;-77
2023/04/18 04:13:53;;;;;;;;;;;10.20;93.30;;;10.49;60.05;99066.34;4969942;28;115178;-77
2023/04/18 04:16:19;;;;;;;;;;;10.20;93.30;;;10.50;59.73;99060.50;4969938;28;124348;-78
2023/04/18 04:18:48;;;;;;;;;;;10.30;93.30;;;10.52;59.67;99061.03;4984575;28;124263;-77
2023/04/18 04:21:17;;;;;;;;;;;10.30;93.30;;;10.53;59.74;99059.09;4976310;28;114353;-79
2023/04/18 04:23:45;;;;;;;;;;;10.30;93.30;;;10.56;59.27;99062.06;4972975;28;114049;-78
2023/04/18 04:26:14;;;;;;;;;;;10.30;93.30;;;10.56;59.12;99062.06;4980349;28;123496;-77
2023/04/18 04:28:41;;;;;;;;;;;10.30;93.20;;;10.54;59.46;99058.78;4971991;28;124105;-77
2023/04/18 04:31:12;;;;;;;;;;;10.30;93.30;;;10.50;59.27;99057.75;4981684;28;114435;-77
2023/04/18 04:33:39;;;;;;;;;;;10.30;93.20;;;10.51;59.38;99056.66;4973199;28;113120;-77
2023/04/18 04:36:15;;;;;;;;;;;10.30;93.20;;;10.51;59.32;99059.41;4985700;28;124197;-78
2023/04/18 04:38:48;;;;;;;;;;;10.30;93.20;;;10.51;59.90;99058.59;4987437;28;124580;-77
2023/04/18 04:41:17;;;;;;;;;;;10.30;93.20;;;10.53;59.53;99070.13;4986431;28;115061;-77
2023/04/18 04:43:45;;;;;;;;;;;10.30;93.20;;;10.54;59.15;99069.84;4984203;28;113782;-78
2023/04/18 04:46:13;;;;;;;;;;;10.30;93.20;;;10.53;59.47;99056.31;4973395;28;123915;-77
2023/04/18 04:48:42;;;;;;;;;;;10.30;93.20;;;10.53;59.78;99070.13;4976493;28;123992;-78
2023/04/18 04:51:12;;;;;;;;;;;10.30;93.20;;;10.52;59.44;99065.75;4973683;28;115386;-77
2023/04/18 04:53:40;;;;;;;;;;;10.30;93.20;;;10.49;59.22;99075.47;4983557;28;114561;-76
2023/04/18 04:56:13;;;;;;;;;;;10.30;93.20;;;10.49;59.57;99067.19;4980386;28;124175;-76
2023/04/18 04:58:39;;;;;;;;;;;10.20;93.20;;;10.45;59.39;99077.22;4984180;28;124945;-80
2023/04/18 05:01:06;;;;;;;;;;;10.20;93.20;;;10.43;59.55;99065.66;4984277;28;114122;-80
2023/04/18 05:03:39;;;;;;;;;;;10.20;93.20;;;10.42;59.56;99077.78;4974661;28;113883;-78
2023/04/18 05:06:07;;;;;;;;;;;10.20;93.20;;;10.41;59.76;99073.41;4986657;28;123772;-80
2023/04/18 05:08:41;;;;;;;;;;;10.20;93.20;;;10.37;59.95;99064.91;4978009;28;124278;-78
2023/04/18 05:11:15;;;;;;;;;;;10.20;93.20;;;10.37;59.88;99064.91;4973376;28;114440;-82
2023/04/18 05:13:41;;;;;;;;;;;10.20;93.20;;;10.39;59.58;99070.94;4987040;28;113717;-80
2023/04/18 05:16:08;;;;;;;;;;;10.20;93.30;;;10.41;59.72;99067.88;4987205;28;124269;-83
2023/04/18 05:18:42;;;;;;;;;;;10.20;93.30;;;10.45;59.72;99068.94;4960374;28;124051;-79
2023/04/18 05:21:08;;;;;;;;;;;10.20;93.40;;;10.46;59.97;99070.56;4979956;28;114410;-77
2023/04/18 05:23:38;;;;;;;;;;;10.20;93.40;;;10.49;59.71;99075.47;4971399;28;112663;-77
2023/04/18 05:26:05;;;;;;;;;;;10.20;93.40;;;10.48;60.31;99071.06;4973557;28;123379;-77
2023/04/18 05:28:40;;;;;;;;;;;10.20;93.70;;;10.52;60.56;99080.38;4982413;28;124205;-76
2023/04/18 05:31:06;;;;;;;;;;;10.20;93.80;;;10.53;60.49;99079.28;4966085;28;113596;-77
2023/04/18 05:33:32;;;;;;;;;;;10.50;94.10;;;10.55;60.72;99088.03;4977464;28;113697;-77
2023/04/18 05:36:02;;;;;;;;;;;10.30;94.00;;;10.55;60.67;99082.53;4974725;28;124690;-87
2023/04/18 05:38:28;;;;;;;;;;;10.30;93.90;;;10.58;60.43;99084.66;4972414;28;123732;-84
2023/04/18 05:40:55;;;;;;;;;;;10.30;94.20;;;10.60;60.34;99085.19;4970256;28;115370;-80
2023/04/18 05:43:28;;;;;;;;;;;10.30;94.10;;;10.60;60.46;99090.72;4974032;28;115651;-84
2023/04/18 05:45:54;;;;;;;;;;;10.30;93.90;;;10.55;60.22;99081.72;4971606;28;123450;-80
2023/04/18 05:48:27;;;;;;;;;;;10.30;93.70;;;10.50;59.87;99085.38;4984092;28;123308;-84
2023/04/18 05:50:53;;;;;;;;;;;10.30;93.70;;;10.52;60.09;99094.19;4986174;28;114446;-79
2023/04/18 05:53:19;;;;;;;;;;;10.30;93.70;;;10.53;60.16;99090.31;4979532;28;114085;-84
2023/04/18 05:55:51;;;;;;;;;;;10.30;93.60;;;10.53;59.81;99095.00;4982522;28;124228;-84
2023/04/18 05:58:20;;;;;;;;;;;10.20;93.60;;;10.55;59.83;99092.75;4976302;28;123986;-87
2023/04/18 06:00:49;;;;;;;;;;;10.20;93.70;;;10.56;59.91;99088.88;4973264;28;114441;-82
2023/04/18 06:03:15;;;;;;;;;;;10.30;93.70;;;10.57;59.94;99083.03;4964269;28;113330;-81
2023/04/18 06:05:42;;;;;;;;;;;10.30;93.60;;;10.57;59.97;99090.53;4978039;28;124818;-82
2023/04/18 06:08:08;;;;;;;;;;;10.30;93.70;;;10.57;59.76;99088.56;4976567;28;123688;-86
2023/04/18 06:10:37;;;;;;;;;;;10.20;93.90;;;10.57;59.71;99091.34;4970915;28;114980;-85
2023/04/18 06:13:03;;;;;;;;;;;10.20;93.70;;;10.61;59.79;99092.38;4983816;28;113832;-85
2023/04/18 06:15:30;;;;;;;;;;;10.30;93.80;;;10.66;59.58;99098.91;4982075;28;124557;-83
2023/04/18 06:17:56;;;;;;;;;;;10.30;93.70;;;10.70;59.53;99105.47;4971628;28;124825;-84
2023/04/18 06:20:25;;;;;;;;;;;10.30;93.70;;;10.74;59.45;99109.25;4980757;28;114066;-82
2023/04/18 06:22:51;;;;;;;;;;;10.40;93.70;;;10.72;59.42;99109.56;4980157;28;113976;-84
2023/04/18 06:25:18;;;;;;;;;;;10.40;93.60;;;10.72;59.83;99108.72;4974184;28;124635;-83
2023/04/18 06:27:54;;;;;;;;;;;10.40;93.60;;;10.70;59.87;99108.25;4984504;28;124770;-83
2023/04/18 06:30:26;;;;;;;;;;;10.40;93.70;;;10.72;59.71;99108.72;4975297;28;115267;-82
2023/04/18 06:32:53;;;;;;;;;;;10.40;93.70;;;10.76;59.87;99109.78;4983038;28;114706;-83
2023/04/18 06:35:19;;;;;;;;;;;10.50;93.70;;;10.75;59.35;99110.91;4969007;28;125012;-82
2023/04/18 06:37:51;;;;;;;;;;;10.40;93.60;;;10.74;59.73;99106.50;4980394;28;124592;-85
2023/04/18 06:40:17;;;;;;;;;;;10.40;93.60;;;10.77;59.95;99111.41;4961861;28;114831;-84
2023/04/18 06:42:43;;;;;;;;;;;10.40;93.60;;;10.80;59.76;99110.78;4969044;28;113761;-79
2023/04/18 06:45:13;;;;;;;;;;;10.50;93.80;;;10.82;59.71;99111.31;4973958;28;124041;-85
2023/04/18 06:47:39;;;;;;;;;;;10.50;93.80;;;10.84;59.98;99106.28;4974302;28;122991;-86
2023/04/18 06:50:07;;;;;;;;;;;10.50;93.80;;;10.85;59.82;99116.22;4986159;28;114452;-86
2023/04/18 06:52:36;;;;;;;;;;;10.50;93.90;;;10.84;60.17;99107.09;4984863;28;113274;-88
2023/04/18 06:55:02;;;;;;;;;;;10.50;93.80;;;10.84;59.85;99122.88;4977224;28;125060;-83
2023/04/18 06:57:34;;;;;;;;;;;10.50;93.70;;;10.81;59.78;99113.25;4987697;28;123370;-85
2023/04/18 07:00:00;;;;;;;;;;;10.50;93.70;;;10.85;59.84;99118.97;4960535;28;113520;-85
2023/04/18 07:02:26;;;;;;;;;;;10.50;93.70;;;10.87;59.31;99116.72;4967647;28;113646;-85
2023/04/18 07:04:56;;;;;;;;;;;10.50;93.70;;;10.88;59.36;99112.88;4984841;28;124181;-82
2023/04/18 07:07:22;;;;;;;;;;;10.50;93.60;;;10.88;59.68;99107.34;4967966;28;121953;-79
2023/04/18 07:09:49;;;;;;;;;;;10.60;93.60;;;10.88;59.97;99112.88;4969702;28;114423;-84
2023/04/18 07:12:15;;;;;;;;;;;10.60;93.80;;;10.90;59.65;99116.13;4980825;28;113635;-84
2023/04/18 07:14:48;;;;;;;;;;;10.60;93.70;;;10.90;59.47;99118.88;4987614;28;124369;-84
2023/04/18 07:17:14;;;;;;;;;;;10.60;93.70;;;10.87;60.10;99110.41;4977928;28;123933;-82
2023/04/18 07:19:46;;;;;;;;;;;10.60;93.80;;;10.87;59.99;99115.91;4980621;28;114583;-84
2023/04/18 07:22:13;;;;;;;;;;;10.60;93.70;;;10.90;59.84;99120.84;4978735;28;114504;-81
2023/04/18 07:24:39;;;;;;;;;;;10.60;93.80;;;10.95;60.13;99117.97;4973760;28;124142;-82
2023/04/18 07:27:08;;;;;;;;;;;10.70;93.90;;;11.02;60.03;99118.38;4982681;28;123290;-85
2023/04/18 07:29:37;;;;;;;;;;;10.70;93.80;;;11.08;59.50;99119.91;4980440;28;114375;-84
2023/04/18 07:32:10;;;;;;;;;;;10.70;93.80;;;11.14;59.71;99126.16;4976269;28;114137;-83
2023/04/18 07:34:39;;;;;;;;;;;10.80;93.80;;;11.18;59.34;99121.66;4984286;28;124160;-82
2023/04/18 07:37:11;;;;;;;;;;;10.80;93.80;;;11.21;59.37;99123.81;4981153;28;124035;-82
2023/04/18 07:39:37;;;;;;;;;;;10.80;93.80;;;11.23;59.38;99125.13;4971106;28;114671;-83
2023/04/18 07:42:04;;;;;;;;;;;10.80;93.80;;;11.19;59.86;99124.09;4975613;28;113656;-79
2023/04/18 07:44:34;;;;;;;;;;;9.60;93.80;;;11.20;59.43;99124.91;4974341;28;124854;-82
2023/04/18 07:47:02;;;;;;;;;;;11.40;94.10;;;11.25;59.41;99120.09;4967001;28;123919;-82
2023/04/18 07:49:39;;;;;;;;;;;10.90;93.80;;;11.29;59.48;99125.84;4983935;28;114498;-84
2023/04/18 07:52:08;;;;;;;;;;;10.90;93.80;;;11.28;59.54;99127.78;4976953;28;113884;-84
2023/04/18 07:54:34;;;;;;;;;;;10.90;93.80;;;11.30;59.50;99119.19;4975886;28;123565;-85
2023/04/18 07:57:00;;;;;;;;;;;10.90;93.80;;;11.33;59.50;99124.09;4981851;28;123588;-80
2023/04/18 07:59:28;;;;;;;;;;;10.90;93.70;;;11.34;59.58;99133.19;4977737;28;114640;-85
2023/04/18 08:01:56;;;;;;;;;;;10.90;93.70;;;11.38;59.21;99132.28;4971419;28;113254;-82
2023/04/18 08:04:25;;;;;;;;;;;11.00;93.80;;;11.43;59.45;99123.88;4978162;28;124302;-82
2023/04/18 08:06:56;;;;;;;;;;;11.00;93.80;;;11.47;58.89;99127.66;4983426;28;123779;-81
2023/04/18 08:09:27;;;;;;;;;;;11.10;93.80;;;11.50;59.17;99123.47;4982685;28;115539;-81
2023/04/18 08:12:00;;;;;;;;;;;11.10;93.70;;;11.46;59.21;99122.44;4979346;28;114437;-83
2023/04/18 08:14:26;;;;;;;;;;;11.10;93.70;;;11.45;58.80;99126.34;4980914;28;124342;-80
2023/04/18 08:17:01;;;;;;;;;;;11.10;93.70;;;11.47;59.35;99122.13;4981075;28;124638;-81
2023/04/18 08:19:27;;;;;;;;;;;11.10;93.70;;;11.50;59.08;99129.00;4975794;28;114849;-81
2023/04/18 08:22:09;;;;;;;;;;;11.10;93.70;;;11.53;58.83;99139.44;4973607;28;113964;-81
2023/04/18 08:24:40;;;;;;;;;;;11.10;93.70;;;11.58;59.39;99130.19;4983953;28;124950;-81
2023/04/18 08:27:08;;;;;;;;;;;11.20;93.70;;;11.64;58.91;99134.50;4989926;28;123889;-81
2023/04/18 08:29:35;;;;;;;;;;;11.20;93.70;;;11.67;59.04;99131.09;4981583;28;114336;-80
2023/04/18 08:32:01;;;;;;;;;;;11.20;93.70;;;11.70;58.75;99134.06;4981500;28;113217;-82
2023/04/18 08:34:28;;;;;;;;;;;11.30;93.70;;;11.77;58.71;99125.34;4985152;28;124443;-80
2023/04/18 08:36:56;;;;;;;;;;;11.40;93.70;;;11.78;58.86;99135.28;4990182;28;123285;-83
2023/04/18 08:39:25;;;;;;;;;;;11.40;93.70;;;11.83;58.90;99137.91;4979584;28;114436;-79
2023/04/18 08:42:03;;;;;;;;;;;11.40;93.70;;;11.90;58.62;99135.56;4980651;28;113632;-81
2023/04/18 08:44:36;;;;;;;;;;;11.50;93.70;;;11.94;58.69;99128.28;4991524;28;124307;-84
2023/04/18 08:47:05;;;;;;;;;;;10.60;93.30;;;11.98;58.44;99127.63;4981587;28;123701;-81
2023/04/18 08:49:35;;;;;;;;;;;11.50;93.70;;;12.05;58.61;99133.56;4987502;28;114134;-82
2023/04/18 08:52:01;;;;;;;;;;;11.60;93.70;;;12.09;58.45;99134.56;4981833;28;113752;-81
2023/04/18 08:54:29;;;;;;;;;;;11.60;93.70;;;12.14;58.26;99139.97;4975037;28;123705;-83
2023/04/18 08:57:05;;;;;;;;;;;11.60;93.50;;;12.15;58.21;99136.91;4980564;28;123461;-83
2023/04/18 08:59:35;;;;;;;;;;;11.60;93.50;;;12.17;58.02;99133.84;4969131;28;115201;-83
2023/04/18 09:02:03;;;;;;;;;;;11.70;93.50;;;12.20;58.29;99141.50;4979160;28;114471;-83
2023/04/18 09:04:36;;;;;;;;;;;11.70;93.50;;;12.25;58.13;99148.84;4984244;28;123778;-81
2023/04/18 09:07:13;;;;;;;;;;;11.80;93.50;;;12.30;58.13;99146.78;4971451;28;123947;-83
2023/04/18 09:09:50;;;;;;;;;;;11.90;93.50;;;12.38;58.17;99143.28;4972595;28;114532;-85
2023/04/18 09:12:38;;;;;;;;;;;11.90;93.50;;;12.45;58.19;99142.00;4983583;28;113792;-83
2023/04/18 09:15:19;;;;;;;;;;;12.00;93.50;;;12.53;57.75;99150.34;4976306;28;125007;-83
2023/04/18 09:17:51;;;;;;;;;;;12.00;93.50;;;12.62;57.72;99146.81;4991491;28;124880;-82
2023/04/18 09:20:47;;;;;;;;;;;12.20;93.40;;;12.68;57.36;99151.94;4974815;28;114535;-82
2023/04/18 09:23:24;;;;;;;;;;;12.20;93.10;;;12.67;56.78;99150.28;4974031;28;113036;-81
2023/04/18 09:25:58;;;;;;;;;;;12.20;93.20;;;12.71;57.01;99150.47;4977514;28;124247;-83
2023/04/18 09:28:26;;;;;;;;;;;12.20;93.00;;;12.72;57.03;99152.91;4985840;28;124292;-82
2023/04/18 09:30:58;;;;;;;;;;;12.30;92.90;;;12.77;56.80;99147.22;4988389;28;113479;-82
2023/04/18 09:33:28;;;;;;;;;;;12.30;92.80;;;12.79;57.03;99146.94;4971833;28;114019;-81
2023/04/18 09:36:22;;;;;;;;;;;12.40;92.90;;;12.78;56.70;99159.13;4972513;28;124413;-81
2023/04/18 09:38:59;;;;;;;;;;;12.40;92.70;;;12.74;56.62;99153.41;4977974;28;123833;-80
2023/04/18 09:41:25;;;;;;;;;;;12.40;92.80;;;12.76;57.00;99148.38;4968829;28;113782;-81
2023/04/18 09:44:14;;;;;;;;;;;12.30;92.70;;;12.81;56.91;99151.03;4977822;28;113803;-81
2023/04/18 09:46:48;;;;;;;;;;;12.40;92.90;;;12.88;56.98;99149.72;4979747;28;124512;-79
2023/04/18 09:49:17;;;;;;;;;;;12.50;92.80;;;12.95;56.69;99150.06;4964439;28;123273;-84
2023/04/18 09:51:49;;;;;;;;;;;12.50;92.80;;;13.01;56.17;99143.28;4968293;28;115652;-81
2023/04/18 09:54:26;;;;;;;;;;;12.50;92.60;;;13.05;56.09;99145.06;4984669;28;114996;-82
2023/04/18 09:56:54;;;;;;;;;;;12.60;92.60;;;13.08;55.81;99148.34;4969947;28;123917;-79
2023/04/18 09:59:28;;;;;;;;;;;12.60;92.40;;;13.11;55.50;99148.53;4971262;28;123499;-81
2023/04/18 10:02:01;;;;;;;;;;;12.60;92.30;;;13.13;55.09;99140.69;4976542;28;114369;-81
2023/04/18 10:04:38;;;;;;;;;;;12.60;92.10;;;13.20;55.13;99145.78;4974955;28;113866;-80
2023/04/18 10:07:04;;;;;;;;;;;12.70;92.00;;;13.25;55.13;99149.22;4973310;28;124720;-79
2023/04/18 10:09:35;;;;;;;;;;;14.40;92.70;;;13.36;54.87;99140.66;4980598;28;123989;-79
2023/04/18 10:12:04;;;;;;;;;;;12.20;91.70;;;13.43;54.80;99143.75;4980120;28;114517;-80
2023/04/18 10:14:34;;;;;;;;;;;12.90;92.00;;;13.51;54.64;99137.38;4968947;28;113799;-82
2023/04/18 10:17:03;;;;;;;;;;;13.00;91.90;;;13.58;54.17;99142.47;4977566;28;123830;-80
2023/04/18 10:19:35;;;;;;;;;;;13.00;91.50;;;13.63;53.88;99142.31;4977712;28;123426;-80
2023/04/18 10:22:04;;;;;;;;;;;13.10;91.30;;;13.65;53.60;99132.53;4972839;28;114535;-81
2023/04/18 10:24:57;;;;;;;;;;;13.10;91.30;;;13.70;53.72;99137.94;4980701;28;113616;-82
2023/04/18 10:27:48;;;;;;;;;;;13.20;91.30;;;13.77;53.69;99128.28;4975522;28;124696;-80
2023/04/18 10:30:15;;;;;;;;;;;13.20;91.30;;;13.84;53.35;99125.84;4983515;28;124468;-81
2023/04/18 10:32:41;;;;;;;;;;;13.30;91.10;;;13.89;52.97;99131.25;4978274;28;114217;-80
2023/04/18 10:35:15;;;;;;;;;;;13.40;91.00;;;13.93;52.74;99130.25;4972340;28;113192;-81
2023/04/18 10:37:51;;;;;;;;;;;12.50;90.50;;;13.98;52.75;99132.06;4972920;28;124105;-80
2023/04/18 10:40:34;;;;;;;;;;;13.40;91.00;;;14.07;52.96;99123.72;4968704;28;123871;-79
2023/04/18 10:43:00;;;;;;;;;;;13.50;90.90;;;14.15;52.94;99131.22;4982893;28;115168;-80
2023/04/18 10:45:35;;;;;;;;;;;12.40;90.40;;;14.22;52.82;99119.63;4970850;28;114816;-80
2023/04/18 10:48:24;;;;;;;;;;;13.70;90.90;;;14.27;52.63;99122.25;4976689;28;123449;-79
2023/04/18 10:51:25;;;;;;;;;;;13.70;90.80;;;14.29;52.48;99114.38;4973090;28;123731;-82
2023/04/18 10:53:56;;;;;;;;;;;13.80;90.70;;;14.35;52.41;99113.06;4970568;28;114358;-81
2023/04/18 10:56:22;;;;;;;;;;;13.80;90.60;;;14.43;52.02;99108.66;4966545;28;113521;-80
2023/04/18 10:58:52;;;;;;;;;;;13.90;90.50;;;14.47;51.58;99106.81;4966198;28;124201;-80
2023/04/18 11:01:32;;;;;;;;;;;13.90;90.30;;;14.49;51.75;99101.75;4968932;28;123428;-82
2023/04/18 11:03:59;;;;;;;;;;;14.00;90.40;;;14.51;51.44;99094.72;4978650;28;114780;-81
2023/04/18 11:06:29;;;;;;;;;;;14.00;90.10;;;14.54;51.61;99099.63;4982441;28;113544;-82
2023/04/18 11:09:11;;;;;;;;;;;14.00;90.10;;;14.57;51.39;99098.16;4977316;28;123949;-81
2023/04/18 11:11:37;;;;;;;;;;;14.10;90.00;;;14.61;51.26;99099.13;4974095;28;123719;-81
2023/04/18 11:14:08;;;;;;;;;;;14.10;90.00;;;14.65;51.21;99094.53;4985041;28;114872;-79
2023/04/18 11:16:34;;;;;;;;;;;14.20;90.00;;;14.71;51.04;99082.06;4977648;28;113617;-81
2023/04/18 11:19:22;;;;;;;;;;;14.20;89.90;;;14.78;51.24;99089.91;4969612;28;124168;-80
2023/04/18 11:21:50;;;;;;;;;;;14.30;90.00;;;14.83;51.19;99092.53;4977644;28;124650;-79